Time;durP1;ratioP1;P1;durP2;ratioP2;P2;SDS_P1;SDS_P2;PMS_P1;PMS_P2;Temp;Humidity;BMP_temperature;BMP_pressure;BME280_temperature;BME280_humidity;BME280_pressure;Samples;Min_cycle;Max_cycle;Signal;HPM_P1;HPM_P2
2023/09/22 00:02:23;;;;;;;;;0.50;0.00;;;;;16.04;66.69;99442.13;5073076;27;45722;-72
2023/09/22 00:04:50;;;;;;;;;1.50;0.00;;;;;16.05;67.15;99459.63;5074827;28;45233;-73
2023/09/22 00:07:15;;;;;;;;;1.00;0.00;;;;;16.03;67.02;99451.00;5070101;28;46307;-73
2023/09/22 00:09:40;;;;;;;;;1.00;0.00;;;;;16.04;67.47;99457.97;5058517;28;65410;-73
2023/09/22 00:12:08;;;;;;;;;2.50;0.50;;;;;16.00;66.87;99455.63;5071718;28;45542;-73
2023/09/22 00:14:34;;;;;;;;;1.00;1.00;;;;;15.94;67.08;99444.56;5067964;27;45625;-73
2023/09/22 00:16:59;;;;;;;;;0.75;0.00;;;;;15.95;67.90;99455.94;5070088;28;45372;-73
2023/09/22 00:19:25;;;;;;;;;0.00;0.00;;;;;15.90;67.09;99445.75;5075397;27;56653;-73
2023/09/22 00:21:50;;;;;;;;;2.75;0.25;;;;;15.86;67.93;99440.78;5072608;27;45395;-73
2023/09/22 00:24:16;;;;;;;;;0.50;0.50;;;;;15.81;67.21;99446.38;5075263;28;45667;-73
2023/09/22 00:26:41;;;;;;;;;0.50;0.50;;;;;15.78;67.82;99432.56;5070811;27;45594;-72
2023/09/22 00:29:06;;;;;;;;;1.50;0.50;;;;;15.74;67.61;99445.06;5068014;27;45294;-72
2023/09/22 00:31:32;;;;;;;;;0.00;0.00;;;;;15.68;67.98;99441.06;5072179;27;45432;-72
2023/09/22 00:33:57;;;;;;;;;1.25;0.50;;;;;15.67;67.40;99451.72;5065836;28;65695;-72
2023/09/22 00:36:25;;;;;;;;;0.75;0.75;;;;;15.66;67.41;99448.25;5073330;28;50222;-72
2023/09/22 00:38:50;;;;;;;;;1.00;1.00;;;;;15.68;67.83;99453.41;5058113;28;45766;-72
2023/09/22 00:41:16;;;;;;;;;0.50;0.00;;;;;15.71;67.98;99450.56;5071357;27;67601;-72
2023/09/22 00:43:41;;;;;;;;;0.75;0.00;;;;;15.72;67.83;99453.09;5079629;27;71245;-72
2023/09/22 00:46:06;;;;;;;;;1.25;0.50;;;;;15.72;67.64;99452.25;5067442;27;46339;-72
2023/09/22 00:48:34;;;;;;;;;0.00;0.00;;;;;15.70;67.39;99441.78;5073085;27;73147;-73
2023/09/22 00:51:01;;;;;;;;;0.50;0.00;;;;;15.70;67.25;99441.78;5076754;27;45492;-73
2023/09/22 00:53:28;;;;;;;;;1.75;1.75;;;;;15.70;67.45;99452.34;5075280;27;45493;-73
2023/09/22 00:55:53;;;;;;;;;0.00;0.00;;;;;15.68;67.17;99443.69;5077171;27;47060;-73
2023/09/22 00:58:19;;;;;;;;;2.75;0.75;;;;;15.69;67.29;99455.94;5075170;27;45486;-72
2023/09/22 01:00:48;;;;;;;;;0.50;0.00;;;;;15.70;67.05;99456.78;5054181;27;45440;-72
2023/09/22 01:03:14;;;;;;;;;0.00;0.00;;;;;15.68;66.72;99448.13;5095816;27;45321;-73
2023/09/22 01:05:40;;;;;;;;;1.50;0.00;;;;;15.67;66.69;99444.66;5074301;27;45244;-74
2023/09/22 01:08:05;;;;;;;;;0.00;0.00;;;;;15.68;66.63;99440.22;5078938;27;45394;-73
2023/09/22 01:10:35;;;;;;;;;1.75;0.00;;;;;15.69;66.22;99455.13;5071606;27;64604;-74
2023/09/22 01:13:01;;;;;;;;;0.00;0.00;;;;;15.70;66.68;99452.34;5079562;27;45598;-73
2023/09/22 01:15:27;;;;;;;;;0.75;0.75;;;;;15.73;66.57;99451.31;5076598;27;46931;-74
2023/09/22 01:17:52;;;;;;;;;0.00;0.00;;;;;15.74;66.55;99450.34;5067948;28;45479;-74
2023/09/22 01:20:17;;;;;;;;;0.75;0.00;;;;;15.78;66.39;99451.88;5078928;27;68209;-73
2023/09/22 01:22:43;;;;;;;;;1.50;0.00;;;;;15.77;65.93;99444.88;5074845;28;45213;-73
2023/09/22 01:25:09;;;;;;;;;1.50;0.00;;;;;15.80;66.22;99447.31;5072176;27;45438;-74
2023/09/22 01:27:34;;;;;;;;;0.25;0.00;;;;;15.82;65.75;99447.22;5088688;27;45359;-74
2023/09/22 01:29:59;;;;;;;;;1.75;0.00;;;;;15.84;66.13;99443.50;5051780;28;45516;-73
2023/09/22 01:32:25;;;;;;;;;0.00;0.00;;;;;15.83;65.91;99441.84;5071203;27;67136;-74
2023/09/22 01:34:50;;;;;;;;;0.50;0.00;;;;;15.84;65.76;99437.41;5075075;27;45327;-74
2023/09/22 01:37:15;;;;;;;;;0.75;0.00;;;;;15.82;65.82;99436.66;5074403;28;71186;-73
2023/09/22 01:39:41;;;;;;;;;0.50;0.50;;;;;15.79;65.45;99432.44;5078441;27;49626;-73
2023/09/22 01:42:08;;;;;;;;;1.00;0.00;;;;;15.79;65.54;99440.34;5069770;28;68991;-73
2023/09/22 01:44:33;;;;;;;;;0.25;0.00;;;;;15.79;65.15;99439.50;5072247;27;47105;-72
2023/09/22 01:46:58;;;;;;;;;0.75;0.00;;;;;15.75;65.33;99441.53;5079545;27;45472;-73
2023/09/22 01:49:24;;;;;;;;;2.00;0.00;;;;;15.74;65.07;99442.44;5053915;27;45459;-72
2023/09/22 01:51:49;;;;;;;;;0.00;0.00;;;;;15.75;65.28;99446.78;5075604;28;57763;-72
2023/09/22 01:54:15;;;;;;;;;0.75;0.00;;;;;15.72;65.41;99444.31;5073416;27;66425;-72
2023/09/22 01:56:41;;;;;;;;;0.25;0.25;;;;;15.73;65.38;99444.22;5075489;27;45358;-72
2023/09/22 01:59:07;;;;;;;;;0.00;0.00;;;;;15.74;65.45;99451.22;5075184;27;45304;-72
2023/09/22 02:01:33;;;;;;;;;0.00;0.00;;;;;15.75;65.16;99454.72;5068530;27;45477;-72
2023/09/22 02:03:58;;;;;;;;;0.00;0.00;;;;;15.78;65.06;99448.41;5074788;27;45372;-72
2023/09/22 02:06:23;;;;;;;;;0.50;0.00;;;;;15.80;65.19;99452.59;5072482;27;70593;-72
2023/09/22 02:08:48;;;;;;;;;1.75;0.00;;;;;15.82;65.23;99450.69;5074260;27;55119;-72
2023/09/22 02:11:14;;;;;;;;;0.00;0.00;;;;;15.84;65.33;99450.59;5072528;28;58870;-72
2023/09/22 02:13:40;;;;;;;;;1.25;0.00;;;;;15.81;64.82;99449.03;5067721;28;48129;-73
2023/09/22 02:16:05;;;;;;;;;0.50;0.00;;;;;15.84;65.21;99453.22;5076776;27;45379;-72
2023/09/22 02:18:31;;;;;;;;;0.00;0.00;;;;;15.87;65.13;99451.22;5075203;27;45324;-72
2023/09/22 02:20:56;;;;;;;;;0.50;0.50;;;;;15.89;65.23;99454.59;5072348;28;73182;-71
2023/09/22 02:23:22;;;;;;;;;0.50;0.50;;;;;15.91;65.30;99454.50;5068753;27;45482;-71
2023/09/22 02:25:47;;;;;;;;;2.00;0.75;;;;;15.89;64.79;99465.16;5071818;28;45430;-72
2023/09/22 02:28:12;;;;;;;;;0.00;0.00;;;;;15.86;64.69;99452.16;5069540;28;45411;-72
2023/09/22 02:30:39;;;;;;;;;0.25;0.25;;;;;15.83;64.95;99455.03;5063233;27;68073;-71
2023/09/22 02:33:04;;;;;;;;;0.00;0.00;;;;;15.81;65.10;99453.44;5066264;28;48119;-71
2023/09/22 02:35:29;;;;;;;;;0.25;0.25;;;;;15.78;64.86;99457.13;5050385;28;49541;-71
2023/09/22 02:37:55;;;;;;;;;5.50;2.00;;;;;15.78;64.80;99456.31;5077953;28;63635;-72
2023/09/22 02:40:20;;;;;;;;;3.00;2.00;;;;;15.72;65.08;99465.44;5065403;27;68547;-72
2023/09/22 02:42:45;;;;;;;;;1.00;0.50;;;;;15.69;64.66;99463.88;5070023;28;45423;-72
2023/09/22 02:45:11;;;;;;;;;0.50;0.50;;;;;15.65;65.07;99475.59;5073217;28;45424;-72
2023/09/22 02:47:40;;;;;;;;;1.00;0.00;;;;;15.59;65.25;99468.06;5070656;28;64752;-72
2023/09/22 02:50:10;;;;;;;;;0.00;0.00;;;;;15.56;65.14;99465.63;5087397;27;45260;-72
2023/09/22 02:52:36;;;;;;;;;2.50;1.00;;;;;15.56;65.40;99471.78;5062446;28;45472;-71
2023/09/22 02:55:03;;;;;;;;;0.00;0.00;;;;;15.54;65.20;99471.00;5070540;28;45738;-71
2023/09/22 02:57:28;;;;;;;;;0.00;0.00;;;;;15.53;65.60;99469.34;5073952;28;45527;-71
2023/09/22 02:59:54;;;;;;;;;0.00;0.00;;;;;15.52;65.66;99466.81;5070000;28;49469;-72
2023/09/22 03:02:20;;;;;;;;;0.00;0.00;;;;;15.53;65.77;99479.88;5070384;28;69300;-71
2023/09/22 03:04:46;;;;;;;;;1.00;1.00;;;;;15.53;64.97;99471.97;5069432;28;45750;-73
2023/09/22 03:07:12;;;;;;;;;1.50;0.00;;;;;15.51;65.23;99467.75;5067019;28;45371;-73
2023/09/22 03:09:37;;;;;;;;;1.50;0.00;;;;;15.48;65.37;99466.16;5067867;28;45517;-73
2023/09/22 03:12:03;;;;;;;;;1.00;1.00;;;;;15.45;65.33;99470.81;5044696;28;63100;-71
2023/09/22 03:14:28;;;;;;;;;0.00;0.00;;;;;15.41;65.57;99471.97;5073318;27;45466;-72
2023/09/22 03:16:53;;;;;;;;;1.25;0.00;;;;;15.36;65.25;99456.44;5076918;27;68702;-72
2023/09/22 03:19:19;;;;;;;;;2.75;0.50;;;;;15.28;65.53;99438.53;5070706;27;45464;-73
2023/09/22 03:21:44;;;;;;;;;0.00;0.00;;;;;15.40;65.17;99462.34;5074672;27;45347;-73
2023/09/22 03:24:10;;;;;;;;;0.00;0.00;;;;;15.39;65.80;99456.25;5073012;28;45302;-73
2023/09/22 03:26:35;;;;;;;;;1.25;0.00;;;;;15.40;65.60;99450.00;5067660;27;45396;-71
2023/09/22 03:29:01;;;;;;;;;2.00;0.00;;;;;15.40;65.47;99457.91;5072432;28;71700;-72
2023/09/22 03:31:26;;;;;;;;;0.25;0.00;;;;;15.40;65.22;99463.19;5070801;28;45448;-71
2023/09/22 03:33:51;;;;;;;;;0.00;0.00;;;;;15.33;65.19;99462.78;5074432;27;45189;-72
2023/09/22 03:36:19;;;;;;;;;0.00;0.00;;;;;15.32;65.15;99463.72;5074629;28;45576;-71
2023/09/22 03:38:47;;;;;;;;;0.00;0.00;;;;;15.28;65.47;99456.09;5070567;28;45574;-72
2023/09/22 03:41:17;;;;;;;;;1.50;0.00;;;;;15.24;65.72;99454.63;5086350;27;45422;-72
2023/09/22 03:43:45;;;;;;;;;1.00;0.00;;;;;15.19;65.63;99458.44;5061356;27;45433;-72
2023/09/22 03:46:10;;;;;;;;;0.50;0.50;;;;;15.17;65.70;99454.19;5075485;27;45484;-72
2023/09/22 03:48:37;;;;;;;;;2.25;0.00;;;;;15.13;66.00;99458.81;5077587;28;45377;-72
2023/09/22 03:51:02;;;;;;;;;1.00;1.00;;;;;15.11;65.66;99458.09;5077516;28;45587;-72
2023/09/22 03:53:27;;;;;;;;;0.00;0.00;;;;;15.08;66.18;99453.00;5054371;28;45404;-72
2023/09/22 03:55:53;;;;;;;;;1.75;1.00;;;;;15.07;66.21;99448.72;5076314;28;64669;-72
2023/09/22 03:58:19;;;;;;;;;1.75;1.00;;;;;15.05;66.53;99444.47;5077215;28;54543;-72
2023/09/22 04:00:44;;;;;;;;;4.00;1.00;;;;;15.04;66.24;99446.28;5070358;28;46010;-72
2023/09/22 04:03:09;;;;;;;;;1.50;1.00;;;;;15.03;66.92;99449.00;5069842;27;45351;-72
2023/09/22 04:05:39;;;;;;;;;2.75;0.00;;;;;15.03;66.50;99449.00;5074436;28;49663;-72
2023/09/22 04:08:05;;;;;;;;;0.75;0.75;;;;;15.02;66.63;99453.44;5078983;27;45482;-72
2023/09/22 04:10:30;;;;;;;;;2.25;0.50;;;;;15.03;66.61;99457.75;5077278;27;45389;-72
2023/09/22 04:12:56;;;;;;;;;1.00;0.00;;;;;15.04;66.59;99458.59;5069661;28;45410;-72
2023/09/22 04:15:23;;;;;;;;;1.00;1.00;;;;;15.01;67.12;99457.00;5072909;28;67768;-72
2023/09/22 04:17:48;;;;;;;;;1.00;1.00;;;;;15.00;67.05;99450.06;5072822;28;47222;-71
2023/09/22 04:20:17;;;;;;;;;1.50;0.00;;;;;15.00;66.70;99450.06;5071310;28;45543;-72
2023/09/22 04:22:43;;;;;;;;;1.00;1.00;;;;;14.99;67.05;99449.19;5067527;27;45738;-71
2023/09/22 04:25:11;;;;;;;;;4.00;2.00;;;;;15.03;66.94;99439.28;5069005;27;45409;-71
2023/09/22 04:27:43;;;;;;;;;1.00;1.00;;;;;15.06;67.39;99447.00;5070616;27;45405;-71
2023/09/22 04:30:15;;;;;;;;;2.75;0.25;;;;;15.06;67.01;99443.53;5070907;27;47151;-70
2023/09/22 04:32:41;;;;;;;;;1.25;1.25;;;;;15.09;67.12;99438.91;5076047;27;45470;-71
2023/09/22 04:35:07;;;;;;;;;3.00;1.00;;;;;15.12;67.29;99445.75;5071412;27;45449;-71
2023/09/22 04:37:32;;;;;;;;;1.25;1.25;;;;;15.16;67.51;99445.44;5076502;27;45291;-71
2023/09/22 04:39:58;;;;;;;;;1.50;1.50;;;;;15.16;67.43;99437.53;5077094;27;46325;-71
2023/09/22 04:42:23;;;;;;;;;2.00;0.75;;;;;15.20;67.35;99443.47;5072523;28;45528;-71
2023/09/22 04:44:50;;;;;;;;;2.00;2.00;;;;;15.23;67.57;99439.75;5060769;28;45422;-71
2023/09/22 04:47:16;;;;;;;;;1.25;1.00;;;;;15.22;67.55;99446.00;5077187;27;46640;-72
2023/09/22 04:49:41;;;;;;;;;0.00;0.00;;;;;15.22;67.17;99443.34;5069126;27;46814;-72
2023/09/22 04:52:08;;;;;;;;;3.00;1.75;;;;;15.21;67.25;99444.28;5076728;27;67883;-72
2023/09/22 04:54:33;;;;;;;;;5.50;2.00;;;;;15.21;67.20;99446.94;5077283;27;45694;-71
2023/09/22 04:56:58;;;;;;;;;2.50;2.00;;;;;15.25;67.17;99446.63;5075613;27;45480;-73
2023/09/22 04:59:24;;;;;;;;;2.50;2.00;;;;;15.24;67.04;99444.94;5074594;28;64930;-71
2023/09/22 05:01:49;;;;;;;;;3.50;2.00;;;;;15.23;67.23;99445.03;5078271;27;45292;-72
2023/09/22 05:04:15;;;;;;;;;2.50;2.00;;;;;15.25;67.43;99454.53;5075707;27;45442;-72
2023/09/22 05:06:43;;;;;;;;;2.25;2.00;;;;;15.27;67.72;99457.06;5069339;28;54372;-71
2023/09/22 05:09:08;;;;;;;;;1.00;1.00;;;;;15.25;67.20;99454.53;5056407;27;46130;-72
2023/09/22 05:11:34;;;;;;;;;2.00;1.75;;;;;15.23;67.27;99455.56;5081352;27;45302;-71
2023/09/22 05:14:00;;;;;;;;;2.75;1.00;;;;;15.26;67.03;99450.09;5075940;27;45341;-71
2023/09/22 05:16:25;;;;;;;;;3.00;3.00;;;;;15.24;66.86;99450.19;5062941;28;45753;-73
2023/09/22 05:18:50;;;;;;;;;1.25;1.25;;;;;15.21;66.76;99445.16;5088226;27;72912;-72
2023/09/22 05:21:16;;;;;;;;;2.50;1.00;;;;;15.17;66.83;99447.16;5076148;28;65547;-72
2023/09/22 05:23:41;;;;;;;;;4.50;1.00;;;;;15.21;67.10;99460.09;5058331;28;67175;-73
2023/09/22 05:26:07;;;;;;;;;2.00;2.00;;;;;15.21;66.79;99454.84;5076945;27;45426;-73
2023/09/22 05:28:33;;;;;;;;;5.00;4.00;;;;;15.19;66.94;99450.53;5072692;28;46376;-72
2023/09/22 05:30:59;;;;;;;;;4.50;2.00;;;;;15.19;66.91;99449.66;5073914;28;45483;-72
2023/09/22 05:33:24;;;;;;;;;3.75;2.00;;;;;15.19;66.71;99441.75;5078846;28;45341;-77
2023/09/22 05:35:50;;;;;;;;;1.75;0.00;;;;;15.21;66.77;99441.66;5067472;28;63975;-72
2023/09/22 05:38:16;;;;;;;;;2.50;1.00;;;;;15.21;66.63;99444.28;5077526;28;46141;-75
2023/09/22 05:40:43;;;;;;;;;0.00;0.00;;;;;15.23;66.81;99447.66;5063360;28;45240;-72
2023/09/22 05:43:10;;;;;;;;;1.50;0.75;;;;;15.21;66.97;99445.16;5066329;28;45496;-70
2023/09/22 05:45:36;;;;;;;;;3.00;1.75;;;;;15.26;67.15;99455.38;5070348;28;45394;-73
2023/09/22 05:48:02;;;;;;;;;2.00;1.00;;;;;15.27;66.99;99443.91;5078315;28;45532;-72
2023/09/22 05:50:27;;;;;;;;;2.00;2.00;;;;;15.30;67.17;99443.69;5074741;28;45429;-69
2023/09/22 05:52:53;;;;;;;;;2.50;1.50;;;;;15.32;67.26;99440.00;5071503;28;45518;-70
2023/09/22 05:55:19;;;;;;;;;2.00;2.00;;;;;15.35;67.27;99437.16;5069847;28;45356;-69
2023/09/22 05:57:46;;;;;;;;;3.25;2.25;;;;;15.36;67.37;99438.00;5078897;27;46140;-67
2023/09/22 06:00:16;;;;;;;;;2.75;1.00;;;;;15.42;67.08;99442.00;5062595;28;45726;-67
2023/09/22 06:02:49;;;;;;;;;4.50;2.00;;;;;15.47;67.38;99439.91;5070512;28;45470;-71
2023/09/22 06:05:16;;;;;;;;;4.75;2.75;;;;;15.52;67.35;99435.16;5051686;28;45687;-71
2023/09/22 06:07:41;;;;;;;;;2.00;1.75;;;;;15.51;67.55;99426.41;5074081;28;45509;-71
2023/09/22 06:10:09;;;;;;;;;1.00;0.75;;;;;15.54;67.02;99422.72;5076544;28;45599;-73
2023/09/22 06:12:35;;;;;;;;;2.00;2.00;;;;;15.54;67.11;99431.47;5067256;28;45497;-72
2023/09/22 06:15:01;;;;;;;;;2.25;1.00;;;;;15.56;66.85;99426.94;5076148;27;45472;-70
2023/09/22 06:17:27;;;;;;;;;3.50;2.00;;;;;15.59;66.82;99427.69;5065176;27;45387;-71
2023/09/22 06:19:52;;;;;;;;;4.00;2.00;;;;;15.57;67.44;99438.34;5071257;28;45406;-72
2023/09/22 06:22:17;;;;;;;;;4.75;1.75;;;;;15.59;66.80;99449.63;5073581;27;45291;-72
2023/09/22 06:24:43;;;;;;;;;4.25;2.00;;;;;15.56;67.47;99444.53;5072232;27;55813;-72
2023/09/22 06:27:08;;;;;;;;;1.50;1.25;;;;;15.54;69.11;99446.44;5053943;28;48356;-72
2023/09/22 06:29:33;;;;;;;;;4.50;1.00;;;;;15.47;68.94;99451.28;5073367;27;45366;-72
2023/09/22 06:31:59;;;;;;;;;7.00;4.00;;;;;15.42;70.78;99447.28;5074711;27;59783;-72
2023/09/22 06:34:24;;;;;;;;;3.00;1.75;;;;;15.37;69.10;99447.59;5071726;28;45170;-71
2023/09/22 06:36:50;;;;;;;;;0.25;0.25;;;;;15.32;69.83;99453.19;5071573;27;76352;-71
2023/09/22 06:39:15;;;;;;;;;1.00;1.00;;;;;15.30;70.28;99455.06;5079060;27;45470;-72
2023/09/22 06:41:42;;;;;;;;;2.00;2.00;;;;;15.27;70.32;99449.16;5072355;28;47071;-72
2023/09/22 06:44:07;;;;;;;;;2.00;0.75;;;;;15.24;70.05;99442.28;5077591;27;45457;-71
2023/09/22 06:46:35;;;;;;;;;1.00;1.00;;;;;15.27;70.03;99443.91;5076450;27;46294;-76
2023/09/22 06:49:05;;;;;;;;;1.00;0.75;;;;;15.29;70.28;99447.28;5078671;27;45660;-73
2023/09/22 06:51:31;;;;;;;;;2.25;1.00;;;;;15.30;70.85;99447.16;5059988;27;45629;-69
2023/09/22 06:53:57;;;;;;;;;1.00;1.00;;;;;15.29;70.56;99448.09;5070137;27;45419;-69
2023/09/22 06:56:22;;;;;;;;;1.75;1.00;;;;;15.29;71.04;99449.91;5059104;28;47176;-75
2023/09/22 06:58:49;;;;;;;;;2.00;2.00;;;;;15.30;71.85;99446.34;5078476;27;45393;-78
2023/09/22 07:01:16;;;;;;;;;5.00;1.00;;;;;15.30;70.94;99448.97;5070680;27;45371;-74
2023/09/22 07:03:43;;;;;;;;;1.50;1.50;;;;;15.31;71.37;99450.63;5072888;28;45457;-71
2023/09/22 07:06:10;;;;;;;;;1.00;1.00;;;;;15.31;71.46;99448.84;5075632;28;45505;-75
2023/09/22 07:08:37;;;;;;;;;2.00;1.00;;;;;15.29;70.80;99452.53;5076134;27;45905;-73
2023/09/22 07:11:04;;;;;;;;;4.00;1.75;;;;;15.31;72.03;99451.47;5064756;27;45391;-72
2023/09/22 07:13:30;;;;;;;;;1.00;1.00;;;;;15.28;72.23;99445.56;5055681;28;46086;-74
2023/09/22 07:15:57;;;;;;;;;3.50;2.00;;;;;15.26;71.83;99448.31;5078215;27;45402;-74
2023/09/22 07:18:22;;;;;;;;;2.00;2.00;;;;;15.28;72.40;99445.56;5068274;27;45385;-73
2023/09/22 07:20:48;;;;;;;;;2.75;2.00;;;;;15.31;72.32;99445.38;5069436;27;45794;-71
2023/09/22 07:23:14;;;;;;;;;1.00;1.00;;;;;15.33;71.87;99446.09;5079625;27;45391;-69
2023/09/22 07:25:39;;;;;;;;;5.50;2.00;;;;;15.34;72.29;99450.44;5075348;27;46280;-69
2023/09/22 07:28:05;;;;;;;;;1.00;0.00;;;;;15.33;73.33;99438.19;5057882;28;54761;-71
2023/09/22 07:30:30;;;;;;;;;3.00;1.00;;;;;15.32;72.99;99447.91;5075511;28;45319;-70
2023/09/22 07:32:55;;;;;;;;;4.00;1.00;;;;;15.31;72.93;99437.47;5073298;28;66950;-73
2023/09/22 07:35:21;;;;;;;;;2.25;1.75;;;;;15.33;72.51;99436.44;5056327;28;49451;-71
2023/09/22 07:37:47;;;;;;;;;1.00;1.00;;;;;15.35;73.14;99425.75;5072400;27;45411;-71
2023/09/22 07:40:13;;;;;;;;;2.00;2.00;;;;;15.40;73.11;99428.09;5073483;27;45443;-72
2023/09/22 07:42:41;;;;;;;;;2.00;2.00;;;;;15.43;72.97;99435.78;5067540;28;61410;-74
2023/09/22 07:45:07;;;;;;;;;2.00;2.00;;;;;15.46;72.95;99431.16;5064588;27;46507;-74
2023/09/22 07:47:34;;;;;;;;;1.25;1.00;;;;;15.46;73.14;99425.88;5046374;28;45516;-73
2023/09/22 07:50:00;;;;;;;;;2.25;1.50;;;;;15.49;72.80;99427.44;5075568;27;45494;-74
2023/09/22 07:52:26;;;;;;;;;2.00;1.00;;;;;15.53;73.12;99424.50;5069593;27;45411;-73
2023/09/22 07:54:53;;;;;;;;;1.50;1.50;;;;;15.59;72.73;99423.25;5073996;28;45402;-75
2023/09/22 07:57:18;;;;;;;;;3.25;2.00;;;;;15.69;72.77;99426.94;5075288;27;45558;-75
2023/09/22 07:59:44;;;;;;;;;2.00;2.00;;;;;15.75;72.52;99431.81;5076336;27;45389;-74
2023/09/22 08:02:10;;;;;;;;;1.25;1.25;;;;;15.79;72.82;99436.88;5075291;27;45361;-72
2023/09/22 08:04:35;;;;;;;;;1.25;1.25;;;;;15.75;73.09;99437.09;5078509;27;46312;-76
2023/09/22 08:07:05;;;;;;;;;1.50;1.25;;;;;15.68;72.89;99424.41;5074198;27;45481;-76
2023/09/22 08:09:31;;;;;;;;;0.50;0.50;;;;;15.71;72.30;99438.22;5076158;27;45279;-73
2023/09/22 08:11:56;;;;;;;;;3.75;2.00;;;;;15.69;72.26;99431.38;5076670;27;45554;-77
2023/09/22 08:14:23;;;;;;;;;1.00;1.00;;;;;15.72;72.47;99439.06;5074174;28;46686;-74
2023/09/22 08:16:49;;;;;;;;;1.00;1.00;;;;;15.66;75.26;99435.06;5072504;27;45868;-75
2023/09/22 08:19:14;;;;;;;;;3.00;1.00;;;;;15.67;76.78;99443.81;5079495;27;45574;-76
2023/09/22 08:21:40;;;;;;;;;0.50;0.50;;;;;15.56;77.30;99455.97;5077101;27;45537;-75
2023/09/22 08:24:07;;;;;;;;;1.75;1.50;;;;;15.52;76.95;99437.78;5068191;27;45516;-73
2023/09/22 08:26:32;;;;;;;;;2.25;1.00;;;;;15.44;74.56;99445.38;5058056;28;45507;-72
2023/09/22 08:28:59;;;;;;;;;2.00;0.00;;;;;15.46;75.25;99454.06;5082649;27;45327;-73
2023/09/22 08:31:26;;;;;;;;;1.25;1.00;;;;;15.45;76.74;99454.97;5068003;28;46070;-71
2023/09/22 08:33:52;;;;;;;;;0.25;0.25;;;;;15.45;75.86;99454.97;5064117;28;45592;-73
2023/09/22 08:36:18;;;;;;;;;0.25;0.25;;;;;15.43;74.97;99452.44;5065223;28;45415;-73
2023/09/22 08:38:44;;;;;;;;;2.00;1.25;;;;;15.42;75.01;99445.47;5070659;27;58249;-71
2023/09/22 08:41:09;;;;;;;;;2.00;2.00;;;;;15.49;74.91;99452.06;5067372;28;45717;-71
2023/09/22 08:43:37;;;;;;;;;4.00;1.50;;;;;15.53;74.95;99464.06;5058123;28;76877;-70
2023/09/22 08:46:03;;;;;;;;;1.00;1.00;;;;;15.58;74.97;99453.19;5068165;28;45212;-75
2023/09/22 08:48:29;;;;;;;;;1.25;0.00;;;;;15.59;74.84;99452.25;5063229;28;45444;-74
2023/09/22 08:50:54;;;;;;;;;1.00;1.00;;;;;15.61;75.11;99466.16;5077449;28;72186;-73
2023/09/22 08:53:20;;;;;;;;;0.75;0.00;;;;;15.57;76.25;99465.53;5061480;28;46979;-75
2023/09/22 08:55:49;;;;;;;;;1.75;0.00;;;;;15.50;76.76;99473.97;5072520;27;45467;-77
2023/09/22 08:58:15;;;;;;;;;0.00;0.00;;;;;15.46;75.82;99475.16;5066922;27;45328;-75
2023/09/22 09:00:41;;;;;;;;;0.00;0.00;;;;;15.40;76.29;99472.91;5076199;27;45392;-69
2023/09/22 09:03:09;;;;;;;;;1.00;0.00;;;;;15.34;75.63;99467.09;5076566;28;74546;-72
2023/09/22 09:05:37;;;;;;;;;1.00;1.00;;;;;15.35;75.44;99455.63;5075100;28;45257;-72
2023/09/22 09:08:12;;;;;;;;;0.25;0.00;;;;;15.41;74.59;99459.63;5058768;28;45613;-73
2023/09/22 09:10:38;;;;;;;;;0.50;0.00;;;;;15.48;74.69;99454.78;5072614;28;45345;-75
2023/09/22 09:13:06;;;;;;;;;0.00;0.00;;;;;15.50;73.94;99448.44;5075166;28;45498;-73
2023/09/22 09:15:54;;;;;;;;;0.75;0.50;;;;;15.61;75.08;99452.16;5073424;28;45279;-73
2023/09/22 09:18:23;;;;;;;;;2.25;0.00;;;;;15.69;74.95;99455.13;5069040;27;45396;-73
2023/09/22 09:21:05;;;;;;;;;2.75;1.00;;;;;15.77;73.18;99455.44;5054996;28;46948;-74
2023/09/22 09:23:31;;;;;;;;;2.00;1.50;;;;;15.78;72.92;99462.41;5078078;28;45382;-74
2023/09/22 09:25:56;;;;;;;;;2.50;0.50;;;;;15.82;72.80;99457.78;5067097;28;45398;-75
2023/09/22 09:28:23;;;;;;;;;2.25;0.50;;;;;15.90;73.12;99465.97;5080350;27;45411;-74
2023/09/22 09:30:50;;;;;;;;;0.50;0.25;;;;;15.93;72.99;99471.88;5077271;28;45314;-73
2023/09/22 09:33:18;;;;;;;;;2.25;0.50;;;;;15.96;72.86;99468.22;5068184;28;46059;-74
2023/09/22 09:35:44;;;;;;;;;1.00;1.00;;;;;16.02;72.86;99474.84;5066819;28;45371;-73
2023/09/22 09:38:11;;;;;;;;;0.25;0.25;;;;;16.03;72.69;99474.75;5069765;27;45515;-76
2023/09/22 09:40:39;;;;;;;;;1.00;0.50;;;;;16.10;72.14;99477.81;5066762;27;45475;-75
2023/09/22 09:43:06;;;;;;;;;0.00;0.00;;;;;16.07;70.95;99460.38;5068922;28;45329;-73
2023/09/22 09:45:33;;;;;;;;;0.00;0.00;;;;;16.17;71.18;99468.50;5068630;28;45832;-73
2023/09/22 09:47:59;;;;;;;;;0.00;0.00;;;;;16.41;70.66;99478.25;5069027;28;45473;-73
2023/09/22 09:50:27;;;;;;;;;0.00;0.00;;;;;16.60;69.09;99491.00;5087959;27;59747;-74
2023/09/22 09:52:55;;;;;;;;;0.00;0.00;;;;;16.75;68.69;99502.25;5055983;28;46812;-70
2023/09/22 09:55:21;;;;;;;;;0.50;0.00;;;;;16.89;68.72;99489.75;5078712;28;45309;-70
2023/09/22 09:57:49;;;;;;;;;1.25;0.00;;;;;16.96;68.17;99490.13;5063718;28;45372;-75
2023/09/22 10:00:19;;;;;;;;;2.50;1.00;;;;;17.03;67.84;99487.88;5057181;28;45506;-73
2023/09/22 10:02:45;;;;;;;;;1.00;0.00;;;;;17.08;67.00;99499.78;5058550;28;47801;-75
2023/09/22 10:05:16;;;;;;;;;1.00;1.00;;;;;17.13;65.79;99501.28;5067672;28;45451;-70
2023/09/22 10:07:43;;;;;;;;;0.00;0.00;;;;;17.10;65.88;99504.97;5072581;28;45513;-70
2023/09/22 10:10:10;;;;;;;;;1.25;0.75;;;;;17.08;66.42;99512.19;5072788;27;45537;-72
2023/09/22 10:12:36;;;;;;;;;2.00;0.75;;;;;17.17;65.92;99513.31;5043706;28;47425;-71
2023/09/22 10:15:04;;;;;;;;;0.00;0.00;;;;;17.23;66.09;99512.88;5058126;28;45590;-72
2023/09/22 10:17:32;;;;;;;;;0.75;0.75;;;;;17.23;65.47;99518.97;5064425;28;45343;-71
2023/09/22 10:20:06;;;;;;;;;2.75;1.50;;;;;17.22;65.38;99550.81;5085676;27;45312;-80
2023/09/22 10:22:33;;;;;;;;;1.25;1.00;;;;;17.18;65.38;99552.84;5079217;28;47173;-80
2023/09/22 10:25:13;;;;;;;;;2.00;0.00;;;;;17.19;65.25;99557.19;5075547;28;45434;-78
2023/09/22 10:28:02;;;;;;;;;0.25;0.00;;;;;17.08;64.49;99565.03;5078881;28;45355;-79
2023/09/22 10:30:46;;;;;;;;;1.00;0.25;;;;;16.97;63.87;99579.03;5080392;27;45374;-84
2023/09/22 10:33:24;;;;;;;;;1.00;0.50;;;;;16.82;63.85;99577.47;5067094;27;45557;-83
2023/09/22 10:35:49;;;;;;;;;1.50;0.50;;;;;16.57;64.05;99595.06;5082123;27;45420;-88
2023/09/22 10:38:15;;;;;;;;;4.50;1.75;;;;;16.49;64.60;99590.31;5082706;27;45467;-85
2023/09/22 10:41:02;;;;;;;;;0.00;0.00;;;;;16.67;64.46;99595.25;5080118;27;45474;-76
2023/09/22 10:43:27;;;;;;;;;0.25;0.25;;;;;16.82;65.06;99599.47;5074180;28;45337;-79
2023/09/22 10:45:53;;;;;;;;;2.25;0.00;;;;;16.93;64.49;99606.66;5059785;28;45270;-78
2023/09/22 10:48:34;;;;;;;;;0.00;0.00;;;;;16.99;64.39;99606.19;5083869;27;45555;-77
2023/09/22 10:51:00;;;;;;;;;1.00;0.50;;;;;17.02;63.19;99613.91;5064385;28;45959;-77
2023/09/22 10:53:25;;;;;;;;;0.75;0.00;;;;;17.05;63.83;99618.13;5069904;28;45441;-77
2023/09/22 10:55:51;;;;;;;;;0.75;0.75;;;;;17.05;63.07;99612.84;5070961;28;45281;-77
2023/09/22 10:58:20;;;;;;;;;0.50;0.50;;;;;17.08;63.12;99628.50;5075041;27;47280;-77
2023/09/22 11:00:59;;;;;;;;;2.25;2.25;;;;;17.01;62.87;99635.16;5077269;27;45209;-78
2023/09/22 11:03:27;;;;;;;;;1.25;1.25;;;;;17.02;63.65;99634.22;5074384;28;45411;-77
2023/09/22 11:06:00;;;;;;;;;1.00;1.00;;;;;17.08;63.73;99647.81;5085464;27;45881;-77
2023/09/22 11:08:25;;;;;;;;;3.00;0.75;;;;;17.17;63.60;99650.78;5070499;27;46083;-77
2023/09/22 11:10:53;;;;;;;;;2.75;2.00;;;;;17.25;63.30;99657.19;5075904;27;45472;-77
2023/09/22 11:13:19;;;;;;;;;2.00;0.50;;;;;17.36;62.10;99653.78;5077354;27;45427;-77
2023/09/22 11:15:49;;;;;;;;;1.00;1.00;;;;;17.52;62.69;99656.16;5061383;28;45530;-77
2023/09/22 11:18:21;;;;;;;;;2.00;2.00;;;;;17.70;62.71;99663.69;5068400;28;46006;-77
2023/09/22 11:20:46;;;;;;;;;1.00;1.00;;;;;17.95;61.72;99673.31;5075017;27;45694;-77
2023/09/22 11:23:12;;;;;;;;;7.25;5.00;;;;;18.01;61.46;99660.47;5063980;28;45242;-77
2023/09/22 11:25:37;;;;;;;;;3.75;2.00;;;;;18.15;60.33;99662.09;5074758;27;70528;-76
2023/09/22 11:28:04;;;;;;;;;0.75;0.75;;;;;18.16;59.29;99662.91;5086467;27;46232;-77
2023/09/22 11:30:29;;;;;;;;;2.00;2.00;;;;;18.12;60.08;99672.91;5066338;27;45484;-77
2023/09/22 11:32:57;;;;;;;;;1.75;0.75;;;;;18.12;59.34;99686.16;5091496;27;45385;-77